createdAt,value
2022-12-27T00:00:21.573Z,102008.94
2022-12-27T00:02:48.296Z,102010.72
2022-12-27T00:05:15.747Z,102001.16
2022-12-27T00:07:44.860Z,102006.41
2022-12-27T00:10:11.873Z,102003.78
2022-12-27T00:12:40.086Z,102004.84
2022-12-27T00:15:07.796Z,102012.75
2022-12-27T00:17:34.480Z,102015.38
2022-12-27T00:20:11.400Z,102007.47
2022-12-27T00:22:44.523Z,101995.25
2022-12-27T00:25:11.513Z,102011.91
2022-12-27T00:27:39.694Z,102010.22
2022-12-27T00:30:08.907Z,102019.94
2022-12-27T00:32:36.159Z,102021.59
2022-12-27T00:35:03.807Z,102024.25
2022-12-27T00:37:30.540Z,102036.56
2022-12-27T00:39:57.495Z,102030.25
2022-12-27T00:42:24.187Z,102034.66
2022-12-27T00:44:52.273Z,102039.81
2022-12-27T00:47:19.066Z,102047.63
2022-12-27T00:49:45.951Z,102043.31
2022-12-27T00:52:13.508Z,102037.19
2022-12-27T00:54:40.149Z,102037.31
2022-12-27T00:57:06.839Z,102043.31
2022-12-27T00:59:33.842Z,102041.63
2022-12-27T01:02:02.078Z,102045.09
2022-12-27T01:04:35.176Z,102042.47
2022-12-27T01:07:01.842Z,102050.25
2022-12-27T01:09:28.962Z,102056.59
2022-12-27T01:11:55.645Z,102049.53
2022-12-27T01:14:22.535Z,102052.28
2022-12-27T01:16:55.406Z,102051.53
2022-12-27T01:19:24.603Z,102058.75
2022-12-27T01:21:51.234Z,102061.50
2022-12-27T01:24:17.891Z,102064.00
2022-12-27T01:26:46.393Z,102077.19
2022-12-27T01:29:13.121Z,102074.78
2022-12-27T01:31:40.482Z,102081.84
2022-12-27T01:34:07.280Z,102080.03
2022-12-27T01:36:35.470Z,102082.78
2022-12-27T01:39:02.501Z,102089.72
2022-12-27T01:41:49.814Z,102092.47
2022-12-27T01:44:51.581Z,102096.94
2022-12-27T01:47:25.272Z,102093.56
2022-12-27T01:50:05.367Z,102088.31
2022-12-27T01:52:37.522Z,102095.38
2022-12-27T01:55:12.536Z,102098.00
2022-12-27T01:57:40.709Z,102090.31
2022-12-27T02:00:08.895Z,102095.72
2022-12-27T02:02:36.485Z,102097.50
2022-12-27T02:05:03.856Z,102107.31
2022-12-27T02:07:43.496Z,102111.75
2022-12-27T02:10:11.035Z,102109.94
2022-12-27T02:12:38.409Z,102112.59
2022-12-27T02:15:07.436Z,102123.84
2022-12-27T02:17:34.772Z,102137.72
2022-12-27T02:20:06.031Z,102133.19
2022-12-27T02:23:25.845Z,102154.03
2022-12-27T02:26:13.329Z,102174.88
2022-12-27T02:29:22.379Z,102173.91
2022-12-27T02:31:56.531Z,102177.63
2022-12-27T02:34:29.325Z,102160.97
2022-12-27T02:37:01.915Z,102139.69
2022-12-27T02:39:31.476Z,102136.81
2022-12-27T02:42:17.599Z,102129.50
2022-12-27T02:45:04.317Z,102130.97
2022-12-27T02:47:52.294Z,102128.19
2022-12-27T02:50:37.878Z,102125.56
2022-12-27T02:53:12.654Z,102119.34
2022-12-27T02:56:24.233Z,102126.31
2022-12-27T02:59:04.869Z,102131.56
2022-12-27T03:02:05.245Z,102131.56
2022-12-27T03:04:50.491Z,102136.00
2022-12-27T03:07:34.578Z,102141.38
2022-12-27T03:10:39.862Z,102136.09
2022-12-27T03:13:41.865Z,102124.88
2022-12-27T03:16:12.335Z,102120.66
2022-12-27T03:18:59.132Z,102129.41
2022-12-27T03:21:50.581Z,102131.41
2022-12-27T03:24:39.682Z,102128.78
2022-12-27T03:27:11.888Z,102134.06
2022-12-27T03:29:56.948Z,102137.53
2022-12-27T03:32:44.230Z,102145.31
2022-12-27T03:35:15.755Z,102157.44
2022-12-27T03:38:02.896Z,102156.50
2022-12-27T03:41:05.550Z,102140.69
2022-12-27T03:43:41.203Z,102142.31
2022-12-27T03:46:33.760Z,102141.28
2022-12-27T03:49:20.290Z,102148.22
2022-12-27T03:51:51.119Z,102146.53
2022-12-27T03:54:28.239Z,102150.84
2022-12-27T03:56:57.319Z,102150.84
2022-12-27T03:59:24.258Z,102144.75
2022-12-27T04:01:54.465Z,102153.50
2022-12-27T04:04:21.294Z,102162.25
2022-12-27T04:06:48.015Z,102164.88
2022-12-27T04:09:34.369Z,102164.03
2022-12-27T04:12:20.990Z,102165.09
2022-12-27T04:15:06.253Z,102160.91
2022-12-27T04:17:51.354Z,102162.91
2022-12-27T04:20:37.265Z,102165.81
2022-12-27T04:23:22.984Z,102158.84
2022-12-27T04:26:08.767Z,102173.81
2022-12-27T04:28:55.171Z,102170.44
2022-12-27T04:31:41.351Z,102173.19
2022-12-27T04:34:28.035Z,102165.19
2022-12-27T04:36:55.071Z,102178.47
2022-12-27T04:39:21.730Z,102181.22
2022-12-27T04:42:07.220Z,102171.50
2022-12-27T04:44:53.612Z,102169.84
2022-12-27T04:47:45.128Z,102169.84
2022-12-27T04:50:48.515Z,102171.66
2022-12-27T04:53:37.197Z,102177.75
2022-12-27T04:56:05.025Z,102179.53
2022-12-27T04:58:32.725Z,102179.66
2022-12-27T05:01:24.234Z,102187.44
2022-12-27T05:03:53.196Z,102184.81
2022-12-27T05:06:22.160Z,102185.75
2022-12-27T05:09:07.690Z,102188.41
2022-12-27T05:12:10.152Z,102186.59
2022-12-27T05:14:37.000Z,102187.56
2022-12-27T05:17:05.016Z,102190.19
2022-12-27T05:19:31.756Z,102193.66
2022-12-27T05:22:16.959Z,102196.41
2022-12-27T05:25:02.055Z,102198.19
2022-12-27T05:27:28.826Z,102199.88
2022-12-27T05:29:55.496Z,102208.63
2022-12-27T05:32:24.078Z,102210.41
2022-12-27T05:34:50.767Z,102216.44
2022-12-27T05:37:19.167Z,102217.38
2022-12-27T05:39:45.837Z,102228.84
2022-12-27T05:42:12.639Z,102229.69
2022-12-27T05:44:39.272Z,102222.75
2022-12-27T05:47:05.978Z,102228.97
2022-12-27T05:49:37.059Z,102228.97
2022-12-27T05:52:04.054Z,102232.44
2022-12-27T05:54:30.963Z,102229.81
2022-12-27T05:56:57.639Z,102237.72
2022-12-27T05:59:28.114Z,102226.22
2022-12-27T06:01:54.904Z,102242.97
2022-12-27T06:04:21.678Z,102242.88
2022-12-27T06:06:50.040Z,102243.72
2022-12-27T06:09:16.721Z,102245.25
2022-12-27T06:11:43.625Z,102240.97
2022-12-27T06:14:10.281Z,102248.88
2022-12-27T06:16:37.054Z,102246.25
2022-12-27T06:19:04.970Z,102254.16
2022-12-27T06:21:31.705Z,102255.81
2022-12-27T06:23:59.786Z,102254.16
2022-12-27T06:26:32.037Z,102263.69
2022-12-27T06:28:58.994Z,102265.53
2022-12-27T06:31:31.091Z,102259.41
2022-12-27T06:33:58.032Z,102257.72
2022-12-27T06:36:32.595Z,102256.88
2022-12-27T06:39:00.989Z,102261.31
2022-12-27T06:41:28.060Z,102256.25
2022-12-27T06:43:56.702Z,102256.38
2022-12-27T06:46:24.976Z,102267.75
2022-12-27T06:48:51.732Z,102265.09
2022-12-27T06:51:20.354Z,102263.44
2022-12-27T06:53:48.036Z,102269.56
2022-12-27T06:56:18.336Z,102265.34
2022-12-27T06:58:46.159Z,102274.19
2022-12-27T07:01:15.051Z,102267.25
2022-12-27T07:03:42.541Z,102271.47
2022-12-27T07:06:11.844Z,102274.00
2022-12-27T07:08:38.812Z,102270.63
2022-12-27T07:11:09.063Z,102283.69
2022-12-27T07:13:38.297Z,102292.53
2022-12-27T07:16:06.123Z,102298.75
2022-12-27T07:18:34.052Z,102294.31
2022-12-27T07:21:04.663Z,102293.38
2022-12-27T07:23:31.559Z,102296.94
2022-12-27T07:26:02.567Z,102298.63
2022-12-27T07:28:29.572Z,102299.59
2022-12-27T07:30:58.958Z,102309.28
2022-12-27T07:33:26.160Z,102309.28
2022-12-27T07:35:58.985Z,102306.75
2022-12-27T07:38:25.758Z,102312.84
2022-12-27T07:40:52.878Z,102317.28
2022-12-27T07:43:21.967Z,102318.22
2022-12-27T07:45:48.661Z,102312.13
2022-12-27T07:48:16.802Z,102316.53
2022-12-27T07:50:46.979Z,102323.50
2022-12-27T07:53:13.739Z,102320.03
2022-12-27T07:55:41.994Z,102328.91
2022-12-27T07:58:08.691Z,102329.00
2022-12-27T08:00:35.577Z,102332.59
2022-12-27T08:03:03.798Z,102340.38
2022-12-27T08:05:31.869Z,102343.13
2022-12-27T08:08:01.903Z,102344.06
2022-12-27T08:10:28.714Z,102346.69
2022-12-27T08:13:05.629Z,102345.75
2022-12-27T08:15:32.384Z,102347.53
2022-12-27T08:17:59.224Z,102350.28
2022-12-27T08:20:25.932Z,102358.91
2022-12-27T08:22:53.978Z,102354.38
2022-12-27T08:25:29.816Z,102353.56
2022-12-27T08:28:03.748Z,102353.41
2022-12-27T08:30:30.612Z,102356.88
2022-12-27T08:32:57.562Z,102358.59
2022-12-27T08:35:51.648Z,102354.16
2022-12-27T08:38:13.181Z,102360.16
2022-12-27T08:40:47.856Z,102365.34
2022-12-27T08:43:20.830Z,102367.84
2022-12-27T08:45:50.172Z,102373.94
2022-12-27T08:48:17.105Z,102374.94
2022-12-27T08:50:44.826Z,102384.63
2022-12-27T08:53:12.973Z,102378.38
2022-12-27T08:55:39.707Z,102375.63
2022-12-27T08:58:16.452Z,102373.84
2022-12-27T09:00:45.288Z,102368.56
2022-12-27T09:03:12.078Z,102371.94
2022-12-27T09:05:42.199Z,102368.38
2022-12-27T09:08:09.545Z,102356.16
2022-12-27T09:10:38.343Z,102366.56
2022-12-27T09:13:05.078Z,102368.13
2022-12-27T09:15:31.877Z,102362.88
2022-12-27T09:17:59.012Z,102362.75
2022-12-27T09:20:25.793Z,102366.97
2022-12-27T09:22:52.533Z,102363.41
2022-12-27T09:25:19.742Z,102369.38
2022-12-27T09:27:47.763Z,102376.22
2022-12-27T09:30:14.837Z,102380.56
2022-12-27T09:32:41.671Z,102377.81
2022-12-27T09:35:09.045Z,102388.22
2022-12-27T09:37:35.777Z,102385.47
2022-12-27T09:40:02.588Z,102387.16
2022-12-27T09:42:54.749Z,102395.81
2022-12-27T09:45:39.471Z,102392.09
2022-12-27T09:48:12.828Z,102396.31
2022-12-27T09:50:47.271Z,102393.47
2022-12-27T09:53:20.871Z,102395.13
2022-12-27T09:55:51.167Z,102397.56
2022-12-27T09:58:37.809Z,102397.34
2022-12-27T10:01:18.987Z,102393.78
2022-12-27T10:03:49.770Z,102398.81
2022-12-27T10:06:41.053Z,102394.25
2022-12-27T10:09:25.731Z,102403.72
2022-12-27T10:12:00.915Z,102405.31
2022-12-27T10:14:42.773Z,102407.84
2022-12-27T10:17:17.794Z,102412.06
2022-12-27T10:19:53.631Z,102408.34
2022-12-27T10:22:31.610Z,102412.56
2022-12-27T10:25:00.769Z,102414.25
2022-12-27T10:27:29.317Z,102418.44
2022-12-27T10:29:57.596Z,102419.16
2022-12-27T10:32:26.670Z,102410.06
2022-12-27T10:34:55.977Z,102408.91
2022-12-27T10:37:24.854Z,102400.88
2022-12-27T10:39:51.753Z,102410.25
2022-12-27T10:42:34.450Z,102402.13
2022-12-27T10:45:26.483Z,102409.78
2022-12-27T10:47:58.663Z,102401.53
2022-12-27T10:50:29.723Z,102391.59
2022-12-27T10:52:57.830Z,102394.84
2022-12-27T10:55:36.063Z,102393.66
2022-12-27T10:58:26.893Z,102394.28
2022-12-27T11:00:56.786Z,102398.47
2022-12-27T11:03:26.301Z,102405.25
2022-12-27T11:06:02.000Z,102396.25
2022-12-27T11:08:30.803Z,102401.31
2022-12-27T11:11:14.886Z,102399.25
2022-12-27T11:13:42.472Z,102399.88
2022-12-27T11:16:16.127Z,102399.63
2022-12-27T11:18:49.150Z,102401.94
2022-12-27T11:21:27.749Z,102391.97
2022-12-27T11:23:58.728Z,102390.91
2022-12-27T11:26:29.614Z,102389.59
2022-12-27T11:29:00.833Z,102386.72
2022-12-27T11:31:34.426Z,102388.16
2022-12-27T11:34:07.604Z,102388.63
2022-12-27T11:36:40.622Z,102384.19
2022-12-27T11:39:08.223Z,102375.22
2022-12-27T11:41:41.889Z,102370.66
2022-12-27T11:44:17.901Z,102374.72
2022-12-27T11:46:55.525Z,102357.69
2022-12-27T11:49:37.786Z,102361.88
2022-12-27T11:52:43.769Z,102353.72
2022-12-27T11:55:31.192Z,102349.97
2022-12-27T11:58:38.552Z,102353.22
2022-12-27T12:01:29.960Z,102352.97
2022-12-27T12:04:34.235Z,102343.03
2022-12-27T12:07:23.560Z,102351.53
2022-12-27T12:10:10.193Z,102344.94
2022-12-27T12:13:18.919Z,102349.84
2022-12-27T12:16:07.677Z,102335.56
2022-12-27T12:19:06.918Z,102328.09
2022-12-27T12:21:40.618Z,102323.25
2022-12-27T12:24:50.346Z,102327.09
2022-12-27T12:27:37.267Z,102320.72
2022-12-27T12:30:33.783Z,102324.53
2022-12-27T12:33:20.208Z,102322.34
2022-12-27T12:35:59.572Z,102322.97
2022-12-27T12:38:38.609Z,102325.94
2022-12-27T12:41:34.729Z,102321.22
2022-12-27T12:44:41.539Z,102324.19
2022-12-27T12:47:18.452Z,102315.19
2022-12-27T12:49:59.991Z,102314.94
2022-12-27T12:52:56.090Z,102306.63
2022-12-27T12:55:43.720Z,102300.25
2022-12-27T12:58:24.279Z,102309.69
2022-12-27T13:01:14.767Z,102306.94
2022-12-27T13:03:53.280Z,102299.00
2022-12-27T13:06:45.542Z,102293.59
2022-12-27T13:09:23.778Z,102287.44
2022-12-27T13:12:02.516Z,102288.03
2022-12-27T13:14:55.135Z,102275.63
2022-12-27T13:17:37.534Z,102277.44
2022-12-27T13:20:22.579Z,102264.22
2022-12-27T13:23:02.524Z,102257.22
2022-12-27T13:25:39.764Z,102250.13
2022-12-27T13:28:25.688Z,102253.50
2022-12-27T13:30:59.579Z,102254.94
2022-12-27T13:33:35.503Z,102240.72
2022-12-27T13:36:17.188Z,102228.19
2022-12-27T13:39:05.479Z,102228.06
2022-12-27T13:41:40.872Z,102223.34
2022-12-27T13:44:34.471Z,102223.09
2022-12-27T13:47:34.592Z,102219.34
2022-12-27T13:50:42.753Z,102215.59
2022-12-27T13:53:37.658Z,102211.00
2022-12-27T13:56:52.040Z,102211.84
2022-12-27T13:59:33.637Z,102209.06
2022-12-27T14:02:46.552Z,102213.41
2022-12-27T14:05:55.729Z,102205.47
2022-12-27T14:08:32.945Z,102192.91
2022-12-27T14:11:01.256Z,102198.91
2022-12-27T14:13:36.384Z,102191.69
2022-12-27T14:16:23.307Z,102182.06
2022-12-27T14:19:24.610Z,102189.03
2022-12-27T14:22:07.543Z,102187.34
2022-12-27T14:25:20.942Z,102167.03
2022-12-27T14:28:28.792Z,102171.47
2022-12-27T14:31:35.368Z,102172.44
2022-12-27T14:34:54.548Z,102171.72
2022-12-27T14:37:53.836Z,102166.44
2022-12-27T14:40:45.435Z,102168.41
2022-12-27T14:43:40.918Z,102164.75
2022-12-27T14:46:40.649Z,102163.94
2022-12-27T14:49:26.445Z,102161.44
2022-12-27T14:52:22.500Z,102165.03
2022-12-27T14:55:24.961Z,102166.97
2022-12-27T14:58:16.294Z,102161.69
2022-12-27T15:01:02.262Z,102158.06
2022-12-27T15:03:52.417Z,102157.09
2022-12-27T15:06:32.934Z,102147.34
2022-12-27T15:09:13.472Z,102142.19
2022-12-27T15:11:54.767Z,102140.50
2022-12-27T15:14:59.943Z,102146.63
2022-12-27T15:17:39.182Z,102140.50
2022-12-27T15:20:21.445Z,102144.00
2022-12-27T15:23:05.828Z,102139.53
2022-12-27T15:25:52.392Z,102144.84
2022-12-27T15:28:31.634Z,102127.28
2022-12-27T15:31:08.396Z,102139.66
2022-12-27T15:33:46.089Z,102130.03
2022-12-27T15:36:16.421Z,102133.66
2022-12-27T15:38:52.954Z,102131.84
2022-12-27T15:41:34.537Z,102135.50
2022-12-27T15:44:17.282Z,102142.59
2022-12-27T15:47:23.301Z,102142.72
2022-12-27T15:50:17.789Z,102139.38
2022-12-27T15:53:01.407Z,102139.38
2022-12-27T15:55:51.630Z,102137.69
2022-12-27T15:58:25.594Z,102138.66
2022-12-27T16:01:25.966Z,102136.84
2022-12-27T16:03:56.482Z,102139.50
2022-12-27T16:06:52.175Z,102128.91
2022-12-27T16:09:36.583Z,102123.78
2022-12-27T16:12:13.692Z,102122.78
2022-12-27T16:14:50.917Z,102120.13
2022-12-27T16:17:34.558Z,102117.63
2022-12-27T16:20:16.332Z,102119.28
2022-12-27T16:22:50.031Z,102115.00
2022-12-27T16:25:32.664Z,102106.91
2022-12-27T16:28:04.951Z,102106.91
2022-12-27T16:30:57.481Z,102111.22
2022-12-27T16:33:37.653Z,102119.16
2022-12-27T16:36:15.003Z,102117.47
2022-12-27T16:38:47.698Z,102128.06
2022-12-27T16:41:28.279Z,102121.13
2022-12-27T16:44:12.900Z,102127.38
2022-12-27T16:47:07.358Z,102124.59
2022-12-27T16:50:05.212Z,102113.19
2022-12-27T16:52:49.309Z,102118.59
2022-12-27T16:55:45.970Z,102121.13
2022-12-27T16:58:24.481Z,102124.59
2022-12-27T17:00:55.071Z,102121.81
2022-12-27T17:03:50.513Z,102111.22
2022-12-27T17:06:52.978Z,102103.41
2022-12-27T17:09:44.251Z,102108.69
2022-12-27T17:12:22.880Z,102098.13
2022-12-27T17:14:55.312Z,102098.97
2022-12-27T17:17:23.650Z,102085.72
2022-12-27T17:19:57.235Z,102081.44
2022-12-27T17:22:32.267Z,102080.44
2022-12-27T17:25:10.209Z,102074.47
2022-12-27T17:27:52.578Z,102076.13
2022-12-27T17:30:21.418Z,102066.53
2022-12-27T17:33:04.367Z,102057.75
2022-12-27T17:35:42.858Z,102052.16
2022-12-27T17:38:27.467Z,102052.31
2022-12-27T17:41:11.963Z,102056.63
2022-12-27T17:44:12.169Z,102042.53
2022-12-27T17:46:47.313Z,102037.41
2022-12-27T17:49:18.242Z,102040.19
2022-12-27T17:52:12.405Z,102047.28
2022-12-27T17:55:13.187Z,102041.16
2022-12-27T17:57:55.442Z,102041.28
2022-12-27T18:00:24.370Z,102034.31
2022-12-27T18:02:53.213Z,102031.00
2022-12-27T18:05:27.438Z,102036.28
2022-12-27T18:08:02.723Z,102031.97
2022-12-27T18:10:31.330Z,102036.41
2022-12-27T18:13:01.743Z,102032.09
2022-12-27T18:15:33.361Z,102028.47
2022-12-27T18:18:02.943Z,102026.78
2022-12-27T18:20:34.343Z,102026.09
2022-12-27T18:23:15.511Z,102015.50
2022-12-27T18:25:52.201Z,102013.97
2022-12-27T18:28:23.827Z,102010.63
2022-12-27T18:31:01.861Z,102008.94
2022-12-27T18:33:34.356Z,102009.91
2022-12-27T18:36:06.151Z,102002.09
2022-12-27T18:38:38.718Z,101997.81
2022-12-27T18:41:08.992Z,101996.16
2022-12-27T18:43:37.444Z,101991.09
2022-12-27T18:46:06.133Z,101989.44
2022-12-27T18:48:42.493Z,101985.25
2022-12-27T18:51:10.198Z,101986.22
2022-12-27T18:53:42.136Z,101984.44
2022-12-27T18:56:26.013Z,101982.75
2022-12-27T18:58:59.286Z,101980.22
2022-12-27T19:01:30.931Z,101970.75
2022-12-27T19:04:23.257Z,101972.84
2022-12-27T19:07:11.899Z,101966.84
2022-12-27T19:09:45.153Z,101964.19
2022-12-27T19:12:22.909Z,101965.16
2022-12-27T19:14:51.829Z,101955.59
2022-12-27T19:17:23.196Z,101951.28
2022-12-27T19:19:58.189Z,101945.97
2022-12-27T19:22:40.510Z,101939.84
2022-12-27T19:25:22.699Z,101940.94
2022-12-27T19:28:20.224Z,101943.72
2022-12-27T19:30:53.081Z,101940.53
2022-12-27T19:33:26.851Z,101928.28
2022-12-27T19:35:54.477Z,101933.56
2022-12-27T19:38:23.847Z,101929.38
2022-12-27T19:41:02.849Z,101925.03
2022-12-27T19:43:36.187Z,101930.34
2022-12-27T19:46:04.491Z,101927.84
2022-12-27T19:48:34.657Z,101910.44
2022-12-27T19:51:01.460Z,101913.09
2022-12-27T19:53:33.049Z,101913.22
2022-12-27T19:56:02.945Z,101895.66
2022-12-27T19:58:33.412Z,101896.78
2022-12-27T20:01:00.368Z,101891.78
2022-12-27T20:03:27.416Z,101894.41
2022-12-27T20:06:15.770Z,101882.31
2022-12-27T20:08:48.436Z,101884.97
2022-12-27T20:11:18.535Z,101883.53
2022-12-27T20:13:45.517Z,101876.59
2022-12-27T20:16:15.128Z,101873.09
2022-12-27T20:18:43.491Z,101867.28
2022-12-27T20:21:13.050Z,101863.91
2022-12-27T20:23:40.214Z,101868.34
2022-12-27T20:26:07.102Z,101869.19
2022-12-27T20:28:39.045Z,101861.41
2022-12-27T20:31:06.687Z,101857.91
2022-12-27T20:33:33.424Z,101855.44
2022-12-27T20:36:03.054Z,101858.06
2022-12-27T20:38:31.450Z,101856.53
2022-12-27T20:41:11.960Z,101859.16
2022-12-27T20:43:41.846Z,101860.00
2022-12-27T20:46:18.049Z,101857.38
2022-12-27T20:48:46.967Z,101842.47
2022-12-27T20:51:15.811Z,101853.19
2022-12-27T20:53:44.890Z,101853.19
2022-12-27T20:56:12.994Z,101851.50
2022-12-27T20:58:41.540Z,101844.56
2022-12-27T21:01:17.978Z,101840.94
2022-12-27T21:03:45.129Z,101843.56
2022-12-27T21:06:14.418Z,101839.41
2022-12-27T21:08:47.787Z,101835.94
2022-12-27T21:11:18.521Z,101836.78
2022-12-27T21:13:48.776Z,101837.75
2022-12-27T21:16:17.513Z,101833.28
2022-12-27T21:18:45.032Z,101831.50
2022-12-27T21:21:13.934Z,101827.03
2022-12-27T21:23:40.976Z,101812.88
2022-12-27T21:26:10.957Z,101817.31
2022-12-27T21:28:38.068Z,101795.34
2022-12-27T21:31:09.770Z,101805.06
2022-12-27T21:33:37.951Z,101798.66
2022-12-27T21:36:07.436Z,101800.47
2022-12-27T21:38:34.889Z,101790.72
2022-12-27T21:41:03.183Z,101790.72
2022-12-27T21:43:31.202Z,101793.38
2022-12-27T21:45:59.240Z,101786.28
2022-12-27T21:48:27.364Z,101784.47
2022-12-27T21:50:54.042Z,101771.41
2022-12-27T21:53:20.941Z,101769.47
2022-12-27T21:55:47.612Z,101763.34
2022-12-27T21:58:14.790Z,101759.84
2022-12-27T22:00:41.995Z,101756.25
2022-12-27T22:03:11.475Z,101754.44
2022-12-27T22:05:39.613Z,101759.72
2022-12-27T22:08:06.960Z,101745.69
2022-12-27T22:10:34.482Z,101746.50
2022-12-27T22:13:01.347Z,101740.41
2022-12-27T22:15:30.065Z,101738.47
2022-12-27T22:17:56.761Z,101739.28
2022-12-27T22:20:23.441Z,101735.69
2022-12-27T22:22:51.777Z,101738.31
2022-12-27T22:25:18.446Z,101724.28
2022-12-27T22:27:45.124Z,101719.97
2022-12-27T22:30:13.429Z,101708.44
2022-12-27T22:32:40.201Z,101702.19
2022-12-27T22:35:09.328Z,101700.19
2022-12-27T22:37:36.299Z,101694.09
2022-12-27T22:40:05.723Z,101691.44
2022-12-27T22:43:00.775Z,101684.22
2022-12-27T22:45:27.899Z,101681.56
2022-12-27T22:47:54.772Z,101675.31
2022-12-27T22:50:28.776Z,101684.91
2022-12-27T22:52:55.557Z,101664.47
2022-12-27T22:55:26.988Z,101665.16
2022-12-27T22:57:55.697Z,101657.94
2022-12-27T23:00:22.621Z,101644.59
2022-12-27T23:02:49.853Z,101642.78
2022-12-27T23:05:16.987Z,101631.22
2022-12-27T23:08:04.347Z,101622.31
2022-12-27T23:10:31.947Z,101623.97
2022-12-27T23:12:59.961Z,101627.31
2022-12-27T23:15:26.872Z,101618.41
2022-12-27T23:17:53.751Z,101620.09
2022-12-27T23:20:21.079Z,101630.50
2022-12-27T23:22:48.080Z,101612.81
2022-12-27T23:25:14.984Z,101616.16
2022-12-27T23:27:44.903Z,101611.72
2022-12-27T23:30:13.195Z,101606.28
2022-12-27T23:32:39.970Z,101609.06
2022-12-27T23:35:07.273Z,101612.56
2022-12-27T23:37:34.784Z,101602.94
2022-12-27T23:40:01.635Z,101600.31
2022-12-27T23:42:28.550Z,101587.22
2022-12-27T23:44:56.677Z,101572.22
2022-12-27T23:47:23.365Z,101572.22
2022-12-27T23:49:50.037Z,101559.81
2022-12-27T23:52:18.768Z,101558.84
2022-12-27T23:54:45.414Z,101546.47
2022-12-27T23:57:22.955Z,101561.34
2022-12-27T23:59:49.968Z,101542.84
